Smoketown, Pennsylvania
Current Conditions -  °F | °C
As of 12:53 PM on Tuesday 21 Oct 2014 (Local Time) from KLNS Reporting Station
Few Clouds Few Clouds  
Wind Chill: 61°   Ceiling: Unl
Heat Index: 61°   Visibility: 10mi
Dew Point: 47°   Wind: 7mph
Humidity: 60%   Direction: 300°WNW
Pressure: 29.84"   Gusts: NA
Location:  40.03°N, 76.19°W
Report Text: KLNS 211653Z 30006KT 10SM FEW027 16/08 A2984 RMK AO2 SLP105 T01610083
Loading
Personal Weather Stations






























Interactive Weather Map
Tropical Storm Tracking
New forecast layout! Learn more

10-Day Weather Forecast

Advertisements
Track Severe Weather on mobile